Time;durP1;ratioP1;P1;durP2;ratioP2;P2;SDS_P1;SDS_P2;PMS_P1;PMS_P2;Temp;Humidity;BMP_temperature;BMP_pressure;BME280_temperature;BME280_humidity;BME280_pressure;Samples;Min_cycle;Max_cycle;Signal;HPM_P1;HPM_P2
2022/07/03 00:08:36;;;;;;;4.68;3.72;;;;;;;16.27;65.80;100795.50;30868880;28;96700;-67
2022/07/03 00:23:57;;;;;;;5.30;4.20;;;;;;;16.32;66.17;100801.09;30866879;28;96866;-62
2022/07/03 00:38:57;;;;;;;5.83;3.53;;;;;;;15.95;65.78;100809.25;30865170;28;96922;-62
2022/07/03 00:53:59;;;;;;;9.15;4.57;;;;;;;15.23;67.22;100792.03;30864022;28;100793;-62
2022/07/03 01:09:03;;;;;;;5.93;4.57;;;;;;;14.82;68.19;100784.44;30862711;28;97078;-78
2022/07/03 01:24:17;;;;;;;7.53;4.90;;;;;;;14.46;69.35;100774.34;30860574;28;97409;-64
2022/07/03 01:39:17;;;;;;;6.83;4.90;;;;;;;14.22;70.45;100752.94;30860557;28;96800;-62
2022/07/03 01:54:19;;;;;;;6.65;4.75;;;;;;;14.02;71.21;100749.94;30858577;28;96842;-62
2022/07/03 02:09:28;;;;;;;8.50;6.97;;;;;;;13.84;72.06;100739.50;30856115;28;96964;-68
2022/07/03 02:24:39;;;;;;;10.07;6.60;;;;;;;13.62;73.11;100740.34;30855111;28;96742;-73
2022/07/03 02:39:53;;;;;;;7.80;5.83;;;;;;;13.43;73.62;100742.44;30854755;28;96970;-78
2022/07/03 02:54:57;;;;;;;6.47;5.77;;;;;;;13.43;74.57;100742.44;30853706;28;96746;-62
2022/07/03 03:09:57;;;;;;;6.73;5.90;;;;;;;13.50;74.79;100732.69;30851495;28;97428;-62
2022/07/03 03:24:58;;;;;;;10.35;5.90;;;;;;;13.61;75.02;100744.03;30858426;28;110255;-68
2022/07/03 03:39:58;;;;;;;8.07;5.45;;;;;;;13.74;75.33;100749.63;30870365;28;96812;-61
2022/07/03 03:54:58;;;;;;;6.60;5.82;;;;;;;13.98;75.10;100729.03;30869349;28;97112;-72
2022/07/03 04:09:59;;;;;;;8.55;6.25;;;;;;;14.11;75.41;100721.25;30868098;28;96719;-77
2022/07/03 04:24:59;;;;;;;13.77;6.35;;;;;;;14.50;75.26;100725.59;30866462;28;99314;-78
2022/07/03 04:40:00;;;;;;;9.38;6.30;;;;;;;14.89;75.14;100719.13;30865224;28;96665;-62
2022/07/03 04:55:01;;;;;;;8.60;6.90;;;;;;;15.47;74.90;100731.81;30862684;28;96709;-64
2022/07/03 05:10:02;;;;;;;12.27;10.07;;;;;;;16.16;74.19;100732.34;30862548;28;96700;-63
2022/07/03 05:25:03;;;;;;;14.65;10.18;;;;;;;16.72;73.64;100723.44;30860645;28;96748;-65
2022/07/03 05:40:04;;;;;;;13.32;11.50;;;;;;;17.40;72.89;100717.31;30858651;28;96750;-71
2022/07/03 05:55:05;;;;;;;15.07;10.63;;;;;;;17.89;72.04;100713.50;30857115;28;97154;-75
2022/07/03 06:10:06;;;;;;;11.05;7.72;;;;;;;18.67;70.83;100716.59;30856316;28;97092;-62
2022/07/03 06:25:07;;;;;;;10.00;5.73;;;;;;;19.07;69.80;100719.22;30854822;28;97214;-62
2022/07/03 06:40:08;;;;;;;6.43;5.13;;;;;;;19.79;67.96;100702.81;30851863;28;97521;-62
2022/07/03 06:55:08;;;;;;;5.93;4.50;;;;;;;20.53;66.19;100707.63;30848993;28;96708;-63
2022/07/03 07:10:09;;;;;;;4.55;3.72;;;;;;;21.27;63.81;100680.56;30851043;28;96850;-62
2022/07/03 07:25:09;;;;;;;4.38;3.58;;;;;;;22.27;60.61;100684.44;30849245;28;97402;-62
2022/07/03 07:40:10;;;;;;;5.43;3.20;;;;;;;23.24;56.56;100665.88;30846803;28;96787;-62
2022/07/03 07:55:11;;;;;;;5.47;3.15;;;;;;;24.53;52.31;100667.13;30844278;28;96726;-65
2022/07/03 08:10:11;;;;;;;;;;;;;;;24.68;49.05;100661.91;30851479;28;97655;-63
2022/07/03 08:25:12;;;;;;;3.00;2.53;;;;;;;24.42;46.02;100652.56;30866236;28;96761;-62
2022/07/03 08:40:16;;;;;;;4.05;2.70;;;;;;;24.89;43.63;100652.09;30863773;28;97101;-62
2022/07/03 08:55:18;;;;;;;3.53;2.40;;;;;;;25.25;42.39;100643.50;30848971;28;97183;-61
2022/07/03 09:10:19;;;;;;;3.40;2.23;;;;;;;26.86;39.38;100622.50;30860504;28;97075;-62
2022/07/03 09:25:19;;;;;;;2.70;2.30;;;;;;;26.75;38.75;100604.41;30859938;28;96826;-72
2022/07/03 09:40:22;;;;;;;5.07;2.03;;;;;;;27.74;36.46;100601.53;30865363;28;97612;-62
2022/07/03 09:55:22;;;;;;;2.33;1.73;;;;;;;28.07;35.98;100579.34;30847792;28;97043;-61
2022/07/03 10:10:25;;;;;;;2.20;1.70;;;;;;;28.49;34.91;100578.09;30826316;28;97706;-66
2022/07/03 10:25:25;;;;;;;4.50;1.80;;;;;;;28.31;34.43;100558.44;30732405;28;96765;-67
2022/07/03 10:56:05;;;;;;;4.57;1.77;;;;;;;28.50;34.48;100524.91;30788447;28;97188;-61
2022/07/03 11:11:54;;;;;;;2.75;1.98;;;;;;;29.36;33.03;100510.91;30868411;28;96833;-67
2022/07/03 11:27:23;;;;;;;2.20;1.73;;;;;;;29.44;31.78;100495.75;30849605;28;96686;-74
2022/07/03 11:42:24;;;;;;;3.03;2.00;;;;;;;29.43;31.86;100483.13;30852900;28;97355;-65
2022/07/03 11:57:24;;;;;;;2.60;1.63;;;;;;;30.96;30.37;100465.78;30860149;28;97116;-77
2022/07/03 12:12:25;;;;;;;2.30;1.90;;;;;;;30.60;28.91;100449.84;30863122;28;98206;-73
2022/07/03 12:27:25;;;;;;;2.67;1.90;;;;;;;29.98;29.02;100445.19;30858252;28;97227;-72
2022/07/03 12:42:26;;;;;;;3.50;1.98;;;;;;;31.28;28.58;100433.06;30856224;28;96900;-68
2022/07/03 13:12:57;;;;;;;2.43;1.83;;;;;;;31.15;27.85;100415.41;30862083;28;96709;-74
2022/07/03 13:28:12;;;;;;;3.37;2.20;;;;;;;30.61;28.53;100398.44;30860713;28;96849;-63
2022/07/03 13:43:12;;;;;;;2.43;1.90;;;;;;;30.47;29.12;100379.13;30857611;28;97424;-74
2022/07/03 13:58:13;;;;;;;3.88;2.60;;;;;;;30.67;28.93;100367.81;30854984;28;96999;-61
2022/07/03 14:13:13;;;;;;;3.42;2.58;;;;;;;28.93;31.17;100370.88;30854214;28;96843;-60
2022/07/03 14:43:32;;;;;;;3.77;2.00;;;;;;;29.11;31.49;100328.97;30852379;28;97045;-60
2022/07/03 14:58:33;;;;;;;2.45;1.90;;;;;;;28.50;31.48;100333.09;30850980;28;96771;-71
2022/07/03 15:13:34;;;;;;;2.50;2.20;;;;;;;27.54;33.25;100320.56;30851954;28;97418;-61
2022/07/03 15:28:35;;;;;;;2.50;1.80;;;;;;;27.43;31.99;100308.03;30847528;28;97651;-61
2022/07/03 15:43:53;;;;;;;2.60;2.08;;;;;;;27.04;33.16;100295.84;30849361;28;96921;-61
2022/07/03 15:58:59;;;;;;;2.90;2.20;;;;;;;27.01;33.04;100291.75;30846489;28;96817;-61
2022/07/03 16:14:02;;;;;;;2.73;1.93;;;;;;;26.55;33.46;100280.88;30839687;28;97122;-73
2022/07/03 16:29:03;;;;;;;2.87;2.10;;;;;;;26.22;33.93;100274.91;30846984;28;97573;-63
2022/07/03 16:44:05;;;;;;;2.80;2.17;;;;;;;26.18;34.24;100273.81;30866373;28;96667;-66
2022/07/03 16:59:09;;;;;;;3.53;2.20;;;;;;;26.08;35.35;100273.78;30864830;28;97076;-62
2022/07/03 17:14:10;;;;;;;3.63;2.50;;;;;;;25.99;35.72;100268.84;30864351;28;96708;-62
2022/07/03 17:29:18;;;;;;;4.20;2.80;;;;;;;25.83;36.13;100267.19;30862357;28;96883;-61
2022/07/03 17:44:19;;;;;;;4.63;2.50;;;;;;;25.70;36.86;100267.69;30861513;28;97312;-63
2022/07/03 17:59:21;;;;;;;3.07;2.43;;;;;;;25.41;37.64;100266.28;30860447;28;96827;-62
2022/07/03 18:14:34;;;;;;;3.13;2.77;;;;;;;25.09;38.28;100266.38;30858956;28;96732;-61
2022/07/03 18:29:38;;;;;;;3.47;2.40;;;;;;;24.71;39.12;100265.63;30859702;28;96844;-62
2022/07/03 18:44:38;;;;;;;5.17;3.20;;;;;;;24.34;39.93;100264.50;30855497;28;96767;-68
2022/07/03 19:00:05;;;;;;;3.70;2.83;;;;;;;23.95;41.21;100268.25;30854828;28;96778;-61
2022/07/03 19:15:07;;;;;;;5.07;3.50;;;;;;;23.46;42.99;100271.78;30854771;28;97507;-61
2022/07/03 19:30:08;;;;;;;5.33;3.40;;;;;;;23.03;44.59;100272.56;30853247;28;98016;-61
2022/07/03 19:45:10;;;;;;;8.90;7.10;;;;;;;22.61;46.42;100282.03;30850957;28;96813;-61
2022/07/03 20:00:11;;;;;;;12.33;7.63;;;;;;;22.17;47.33;100282.66;30850031;28;96797;-73
2022/07/03 20:15:12;;;;;;;4.87;4.03;;;;;;;21.83;48.77;100290.75;30867552;28;96756;-72
2022/07/03 20:30:12;;;;;;;5.40;4.03;;;;;;;21.54;49.67;100296.16;30868130;28;97532;-73
2022/07/03 20:45:13;;;;;;;9.38;3.95;;;;;;;21.32;50.75;100284.28;30867524;28;96834;-74
2022/07/03 21:00:15;;;;;;;13.30;5.77;;;;;;;21.02;52.28;100285.25;30864828;28;97539;-61
2022/07/03 21:15:16;;;;;;;11.83;4.73;;;;;;;20.77;53.40;100283.63;30864755;28;96735;-63
2022/07/03 21:30:16;;;;;;;9.17;4.00;;;;;;;21.08;54.03;100276.19;30817000;28;96786;-61
2022/07/03 21:45:17;;;;;;;8.03;4.30;;;;;;;21.49;53.09;100268.91;30851684;28;97211;-74
2022/07/03 22:00:17;;;;;;;6.93;3.80;;;;;;;21.45;52.84;100260.44;30733517;28;96984;-67
2022/07/03 22:15:18;;;;;;;6.03;3.90;;;;;;;21.24;53.29;100264.63;30844125;28;96669;-74
2022/07/03 22:30:18;;;;;;;7.17;4.60;;;;;;;20.95;54.47;100259.16;30857326;28;98376;-61
2022/07/03 22:45:20;;;;;;;7.00;5.40;;;;;;;20.60;55.17;100248.31;30857598;28;97789;-70
2022/07/03 23:00:20;;;;;;;9.63;5.83;;;;;;;20.15;56.33;100246.97;30856204;28;97586;-61
2022/07/03 23:15:21;;;;;;;7.70;6.13;;;;;;;19.60;57.56;100235.25;30855246;28;96696;-61
2022/07/03 23:30:21;;;;;;;7.85;5.90;;;;;;;19.33;58.05;100229.38;30854307;28;96989;-76
2022/07/03 23:45:21;;;;;;;8.85;5.65;;;;;;;18.51;59.65;100221.53;30868601;28;97037;-61
